Weather at Camp Giant H-163 Heliport [CLOSED]

Public forecast

Using degrees Celsius for public forecast. Weather courtesy of forecast.io.

Closest aviation weather report (METAR) to Camp Giant H-163 Heliport

Closest report is Gimpo International Airport, 16.6 nm (30.7 km) S. Retrieved 2020/10/20 22:00 UTC (59 minutes ago):

RKSS 202200Z 21003KT 170V230 CAVOK 10/09 Q1021 NOSIG

Closest aviation forecast (TAF) to Camp Giant H-163 Heliport

Closest forecast is Gimpo International Airport, 16.6 nm (30.7 km) S. Retrieved 2020/10/20 18:00 UTC (5 hours ago):

TAF RKSS 201700Z 2018/2124 11005KT 6000 NSC TN09/2021Z TX19/2105Z TN10/2121Z BECMG 2100/2101 17010KT 9999 FEW030 BKN130 BECMG 2107/2108 BKN030 BKN100 BECMG 2115/2116 6000 -RA SCT010 BKN025 OVC060 BECMG 2119/2120 4000 BR BECMG 2123/2124 30008KT 6000 NSW SCT030